createdAt,value
2022-09-26T00:00:17.060Z,15.90
2022-09-26T00:02:45.053Z,15.90
2022-09-26T00:05:12.192Z,15.90
2022-09-26T00:07:39.012Z,15.90
2022-09-26T00:10:06.040Z,15.50
2022-09-26T00:12:32.853Z,15.90
2022-09-26T00:14:59.677Z,15.90
2022-09-26T00:17:26.555Z,15.90
2022-09-26T00:19:53.342Z,15.90
2022-09-26T00:22:20.227Z,15.90
2022-09-26T00:24:47.097Z,15.90
2022-09-26T00:27:14.251Z,15.90
2022-09-26T00:29:41.147Z,16.00
2022-09-26T00:32:08.013Z,16.00
2022-09-26T00:34:34.825Z,16.00
2022-09-26T00:37:01.819Z,16.00
2022-09-26T00:39:28.647Z,16.00
2022-09-26T00:41:55.520Z,16.00
2022-09-26T00:44:34.809Z,16.00
2022-09-26T00:47:01.992Z,16.00
2022-09-26T00:49:34.058Z,16.00
2022-09-26T00:52:10.267Z,16.00
2022-09-26T00:54:38.027Z,16.00
2022-09-26T00:57:17.430Z,16.00
2022-09-26T00:59:46.662Z,16.00
2022-09-26T01:02:14.336Z,16.10
2022-09-26T01:04:42.552Z,16.00
2022-09-26T01:07:12.040Z,16.00
2022-09-26T01:09:39.414Z,16.10
2022-09-26T01:12:08.906Z,16.00
2022-09-26T01:14:37.710Z,16.10
2022-09-26T01:17:05.102Z,16.10
2022-09-26T01:19:50.754Z,16.10
2022-09-26T01:22:27.037Z,16.10
2022-09-26T01:25:13.117Z,16.10
2022-09-26T01:27:55.157Z,16.10
2022-09-26T01:30:23.645Z,16.10
2022-09-26T01:33:08.951Z,16.10
2022-09-26T01:35:54.953Z,16.10
2022-09-26T01:38:37.234Z,16.00
2022-09-26T01:41:14.131Z,16.00
2022-09-26T01:43:43.944Z,16.00
2022-09-26T01:46:14.077Z,16.00
2022-09-26T01:48:44.802Z,16.00
2022-09-26T01:51:14.504Z,16.00
2022-09-26T01:53:41.288Z,16.00
2022-09-26T01:56:16.737Z,16.00
2022-09-26T01:58:49.687Z,15.90
2022-09-26T02:01:18.850Z,16.00
2022-09-26T02:03:47.920Z,15.90
2022-09-26T02:06:18.478Z,16.00
2022-09-26T02:08:54.182Z,16.00
2022-09-26T02:11:22.142Z,15.90
2022-09-26T02:16:43.515Z,15.90
2022-09-26T02:19:26.861Z,15.90
2022-09-26T02:21:54.140Z,15.90
2022-09-26T02:24:22.345Z,15.90
2022-09-26T02:26:49.933Z,15.90
2022-09-26T02:29:19.046Z,15.90
2022-09-26T02:32:12.801Z,15.80
2022-09-26T02:34:41.357Z,15.80
2022-09-26T02:37:08.734Z,15.90
2022-09-26T02:39:36.533Z,15.90
2022-09-26T02:42:07.925Z,15.80
2022-09-26T02:44:40.750Z,15.80
2022-09-26T02:47:10.764Z,15.80
2022-09-26T02:49:37.847Z,15.90
2022-09-26T02:52:23.625Z,15.80
2022-09-26T02:55:07.495Z,15.90
2022-09-26T02:57:40.567Z,15.80
2022-09-26T03:00:10.615Z,15.80
2022-09-26T03:02:45.897Z,15.80
2022-09-26T03:05:30.574Z,15.80
2022-09-26T03:08:07.601Z,15.80
2022-09-26T03:10:35.454Z,15.80
2022-09-26T03:13:05.095Z,15.80
2022-09-26T03:15:33.164Z,15.80
2022-09-26T03:18:01.607Z,15.80
2022-09-26T03:20:29.024Z,15.80
2022-09-26T03:22:56.007Z,15.80
2022-09-26T03:25:25.688Z,15.80
2022-09-26T03:28:03.245Z,15.70
2022-09-26T03:30:30.145Z,15.80
2022-09-26T03:33:32.285Z,15.80
2022-09-26T03:36:00.085Z,15.70
2022-09-26T03:38:27.568Z,15.70
2022-09-26T03:41:04.305Z,15.80
2022-09-26T03:43:49.589Z,15.80
2022-09-26T03:46:16.762Z,15.80
2022-09-26T03:48:43.571Z,15.80
2022-09-26T03:51:13.926Z,15.80
2022-09-26T03:53:42.220Z,15.80
2022-09-26T03:56:13.555Z,15.80
2022-09-26T03:58:41.421Z,15.80
2022-09-26T04:01:09.829Z,15.80
2022-09-26T04:03:37.716Z,15.90
2022-09-26T04:06:05.338Z,15.90
2022-09-26T04:08:32.231Z,15.80
2022-09-26T04:11:03.504Z,15.80
2022-09-26T04:16:19.952Z,15.80
2022-09-26T04:18:57.307Z,15.80
2022-09-26T04:21:27.080Z,15.80
2022-09-26T04:23:54.664Z,15.80
2022-09-26T04:26:24.111Z,15.80
2022-09-26T04:28:54.954Z,15.80
2022-09-26T04:31:24.279Z,15.80
2022-09-26T04:33:57.913Z,15.80
2022-09-26T04:36:24.710Z,15.80
2022-09-26T04:38:51.502Z,15.80
2022-09-26T04:41:20.733Z,15.80
2022-09-26T04:43:48.883Z,15.80
2022-09-26T04:46:22.342Z,15.70
2022-09-26T04:48:52.207Z,15.80
2022-09-26T04:51:22.073Z,15.80
2022-09-26T04:53:50.646Z,15.90
2022-09-26T04:56:40.771Z,15.80
2022-09-26T04:59:08.518Z,15.80
2022-09-26T05:01:58.411Z,15.80
2022-09-26T05:04:33.539Z,15.80
2022-09-26T05:07:00.830Z,15.80
2022-09-26T05:09:35.508Z,15.80
2022-09-26T05:12:10.001Z,15.70
2022-09-26T05:14:38.606Z,15.70
2022-09-26T05:17:06.003Z,15.70
2022-09-26T05:19:33.914Z,15.70
2022-09-26T05:22:20.065Z,15.70
2022-09-26T05:25:06.824Z,15.70
2022-09-26T05:27:35.302Z,15.70
2022-09-26T05:30:02.383Z,15.70
2022-09-26T05:32:29.696Z,15.70
2022-09-26T05:34:57.524Z,15.70
2022-09-26T05:37:26.350Z,15.40
2022-09-26T05:40:12.686Z,15.70
2022-09-26T05:42:46.159Z,15.70
2022-09-26T05:45:13.780Z,15.70
2022-09-26T05:47:42.167Z,15.80
2022-09-26T05:50:12.275Z,15.80
2022-09-26T05:52:40.176Z,15.80
2022-09-26T05:55:12.019Z,15.80
2022-09-26T05:58:01.123Z,15.80
2022-09-26T06:00:48.544Z,15.90
2022-09-26T06:03:15.936Z,16.00
2022-09-26T06:06:04.672Z,15.90
2022-09-26T06:08:33.225Z,16.00
2022-09-26T06:11:31.112Z,16.00
2022-09-26T06:14:00.802Z,16.00
2022-09-26T06:16:28.303Z,16.00
2022-09-26T06:18:55.826Z,16.00
2022-09-26T06:21:23.907Z,16.00
2022-09-26T06:23:54.886Z,16.00
2022-09-26T06:26:23.741Z,16.10
2022-09-26T06:29:00.993Z,16.00
2022-09-26T06:31:35.411Z,16.10
2022-09-26T06:34:12.942Z,16.10
2022-09-26T06:36:59.744Z,16.10
2022-09-26T06:39:35.899Z,16.20
2022-09-26T06:42:07.793Z,16.20
2022-09-26T06:44:37.516Z,16.30
2022-09-26T06:47:29.023Z,16.40
2022-09-26T06:50:28.175Z,16.40
2022-09-26T06:52:57.734Z,16.40
2022-09-26T06:55:25.388Z,16.50
2022-09-26T06:57:53.984Z,16.50
2022-09-26T07:00:22.103Z,16.50
2022-09-26T07:03:00.285Z,16.60
2022-09-26T07:05:46.914Z,16.60
2022-09-26T07:08:14.842Z,16.60
2022-09-26T07:10:41.614Z,16.60
2022-09-26T07:13:15.791Z,16.70
2022-09-26T07:15:46.736Z,16.70
2022-09-26T07:18:37.938Z,16.70
2022-09-26T07:21:17.241Z,16.60
2022-09-26T07:23:48.745Z,16.60
2022-09-26T07:26:18.592Z,16.60
2022-09-26T07:28:46.948Z,16.60
2022-09-26T07:31:15.754Z,16.60
2022-09-26T07:34:14.613Z,16.60
2022-09-26T07:36:45.942Z,16.60
2022-09-26T07:39:13.193Z,16.60
2022-09-26T07:41:40.701Z,16.50
2022-09-26T07:47:13.738Z,16.70
2022-09-26T07:50:00.288Z,16.70
2022-09-26T07:52:46.450Z,16.70
2022-09-26T07:55:25.012Z,16.70
2022-09-26T07:58:30.108Z,16.70
2022-09-26T08:01:16.647Z,16.70
2022-09-26T08:04:01.785Z,16.70
2022-09-26T08:06:36.816Z,16.70
2022-09-26T08:09:04.269Z,16.70
2022-09-26T08:11:49.747Z,16.80
2022-09-26T08:14:40.513Z,16.80
2022-09-26T08:17:35.080Z,16.70
2022-09-26T08:20:02.592Z,16.80
2022-09-26T08:22:30.025Z,16.80
2022-09-26T08:25:00.283Z,16.90
2022-09-26T08:27:58.378Z,16.90
2022-09-26T08:30:31.328Z,16.90
2022-09-26T08:33:02.095Z,16.90
2022-09-26T08:35:38.552Z,16.90
2022-09-26T08:38:31.449Z,16.90
2022-09-26T08:41:39.532Z,17.00
2022-09-26T08:44:39.380Z,17.10
2022-09-26T08:47:41.257Z,17.10
2022-09-26T08:50:37.985Z,17.10
2022-09-26T08:53:11.632Z,17.20
2022-09-26T08:55:46.667Z,17.20
2022-09-26T08:58:27.942Z,17.20
2022-09-26T09:01:01.435Z,17.20
2022-09-26T09:03:37.815Z,17.20
2022-09-26T09:06:13.186Z,17.10
2022-09-26T09:08:43.992Z,17.10
2022-09-26T09:11:27.280Z,17.10
2022-09-26T09:14:12.512Z,17.20
2022-09-26T09:17:07.116Z,17.20
2022-09-26T09:20:06.401Z,17.20
2022-09-26T09:22:54.633Z,17.10
2022-09-26T09:25:40.307Z,17.10
2022-09-26T09:28:32.467Z,17.10
2022-09-26T09:31:01.447Z,17.10
2022-09-26T09:33:30.956Z,17.10
2022-09-26T09:36:36.544Z,17.10
2022-09-26T09:39:37.148Z,17.20
2022-09-26T09:42:40.363Z,17.10
2022-09-26T09:45:13.561Z,17.20
2022-09-26T09:47:40.550Z,17.20
2022-09-26T09:50:27.625Z,17.20
2022-09-26T09:52:59.771Z,17.20
2022-09-26T09:55:56.630Z,17.20
2022-09-26T09:58:23.478Z,17.30
2022-09-26T10:00:59.648Z,17.40
2022-09-26T10:03:39.906Z,17.50
2022-09-26T10:06:44.227Z,17.50
2022-09-26T10:09:35.243Z,17.60
2022-09-26T10:12:16.674Z,17.70
2022-09-26T10:15:11.803Z,17.80
2022-09-26T10:18:23.456Z,17.80
2022-09-26T10:20:57.476Z,17.90
2022-09-26T10:23:27.599Z,17.90
2022-09-26T10:26:00.566Z,18.00
2022-09-26T10:28:30.010Z,18.00
2022-09-26T10:31:01.660Z,18.00
2022-09-26T10:33:30.791Z,17.90
2022-09-26T10:36:19.976Z,18.00
2022-09-26T10:39:10.860Z,17.90
2022-09-26T10:41:40.138Z,17.90
2022-09-26T10:44:20.623Z,17.90
2022-09-26T10:47:34.584Z,17.90
2022-09-26T10:50:31.106Z,17.90
2022-09-26T10:53:02.893Z,17.90
2022-09-26T10:55:32.942Z,17.90
2022-09-26T10:58:01.157Z,18.00
2022-09-26T11:00:36.794Z,18.00
2022-09-26T11:03:08.694Z,18.00
2022-09-26T11:05:59.165Z,18.10
2022-09-26T11:08:33.463Z,18.10
2022-09-26T11:11:24.035Z,18.20
2022-09-26T11:14:08.458Z,18.10
2022-09-26T11:16:50.800Z,18.10
2022-09-26T11:19:19.611Z,18.10
2022-09-26T11:21:49.718Z,18.10
2022-09-26T11:24:22.972Z,18.20
2022-09-26T11:26:53.635Z,18.20
2022-09-26T11:29:36.908Z,18.30
2022-09-26T11:32:23.871Z,18.30
2022-09-26T11:34:54.369Z,18.40
2022-09-26T11:37:34.022Z,18.50
2022-09-26T11:40:14.698Z,18.50
2022-09-26T11:42:45.354Z,18.40
2022-09-26T11:45:12.632Z,18.50
2022-09-26T11:48:21.768Z,18.50
2022-09-26T11:51:21.840Z,18.50
2022-09-26T11:53:51.824Z,18.50
2022-09-26T11:56:26.536Z,18.60
2022-09-26T11:59:20.819Z,18.60
2022-09-26T12:01:48.180Z,18.60
2022-09-26T12:04:26.736Z,18.80
2022-09-26T12:07:02.403Z,18.80
2022-09-26T12:09:41.636Z,18.80
2022-09-26T12:12:19.450Z,18.80
2022-09-26T12:15:02.906Z,18.80
2022-09-26T12:17:41.019Z,18.80
2022-09-26T12:20:07.836Z,18.80
2022-09-26T12:22:38.776Z,18.70
2022-09-26T12:25:13.782Z,18.80
2022-09-26T12:27:47.233Z,18.50
2022-09-26T12:30:15.759Z,18.80
2022-09-26T12:32:47.087Z,18.70
2022-09-26T12:35:14.030Z,18.90
2022-09-26T12:37:41.479Z,18.80
2022-09-26T12:40:10.222Z,18.90
2022-09-26T12:42:47.103Z,19.00
2022-09-26T12:45:17.324Z,19.10
2022-09-26T12:47:50.796Z,19.20
2022-09-26T12:50:24.924Z,19.20
2022-09-26T12:52:54.845Z,19.30
2022-09-26T12:55:22.474Z,19.20
2022-09-26T12:58:00.856Z,19.30
2022-09-26T13:00:30.469Z,19.20
2022-09-26T13:03:00.378Z,19.30
2022-09-26T13:05:49.838Z,19.60
2022-09-26T13:08:19.697Z,19.30
2022-09-26T13:10:50.493Z,19.40
2022-09-26T13:13:35.049Z,19.40
2022-09-26T13:16:13.672Z,19.40
2022-09-26T13:18:51.838Z,19.40
2022-09-26T13:21:24.883Z,19.50
2022-09-26T13:23:58.125Z,19.50
2022-09-26T13:26:33.723Z,19.60
2022-09-26T13:29:24.522Z,19.80
2022-09-26T13:31:58.728Z,19.90
2022-09-26T13:34:28.125Z,20.00
2022-09-26T13:36:57.437Z,20.10
2022-09-26T13:39:46.834Z,20.10
2022-09-26T13:42:16.715Z,20.10
2022-09-26T13:44:44.699Z,20.00
2022-09-26T13:47:15.266Z,19.90
2022-09-26T13:50:01.338Z,19.90
2022-09-26T13:52:28.240Z,19.80
2022-09-26T13:54:57.408Z,19.70
2022-09-26T13:57:39.066Z,19.70
2022-09-26T14:00:19.434Z,19.70
2022-09-26T14:03:09.455Z,19.60
2022-09-26T14:05:42.480Z,19.50
2022-09-26T14:08:43.536Z,19.50
2022-09-26T14:11:15.410Z,19.40
2022-09-26T14:13:42.220Z,19.50
2022-09-26T14:16:27.479Z,19.30
2022-09-26T14:19:00.640Z,19.30
2022-09-26T14:21:30.403Z,19.30
2022-09-26T14:24:16.266Z,19.40
2022-09-26T14:26:44.530Z,19.30
2022-09-26T14:29:24.996Z,19.30
2022-09-26T14:32:18.555Z,19.30
2022-09-26T14:34:46.879Z,19.30
2022-09-26T14:37:25.869Z,19.20
2022-09-26T14:40:08.173Z,19.20
2022-09-26T14:42:37.712Z,19.10
2022-09-26T14:45:27.997Z,19.20
2022-09-26T14:48:01.193Z,19.10
2022-09-26T14:50:32.166Z,19.10
2022-09-26T14:53:02.443Z,19.10
2022-09-26T14:55:30.953Z,18.90
2022-09-26T14:58:17.124Z,19.00
2022-09-26T15:00:46.399Z,19.10
2022-09-26T15:03:15.154Z,19.20
2022-09-26T15:05:43.045Z,19.20
2022-09-26T15:08:27.216Z,19.20
2022-09-26T15:10:56.002Z,19.30
2022-09-26T15:13:26.199Z,19.30
2022-09-26T15:15:53.045Z,19.20
2022-09-26T15:18:26.265Z,19.20
2022-09-26T15:21:01.906Z,19.30
2022-09-26T15:23:32.425Z,19.30
2022-09-26T15:26:02.439Z,19.40
2022-09-26T15:28:34.445Z,19.50
2022-09-26T15:31:21.500Z,19.70
2022-09-26T15:33:51.760Z,19.70
2022-09-26T15:36:18.770Z,19.60
2022-09-26T15:38:47.411Z,19.60
2022-09-26T15:41:16.161Z,19.50
2022-09-26T15:43:43.037Z,19.40
2022-09-26T15:46:20.600Z,19.30
2022-09-26T15:48:47.569Z,19.20
2022-09-26T15:51:23.628Z,19.10
2022-09-26T15:53:55.806Z,19.00
2022-09-26T15:56:30.907Z,18.80
2022-09-26T15:59:01.051Z,18.70
2022-09-26T16:01:29.558Z,18.60
2022-09-26T16:04:13.655Z,18.60
2022-09-26T16:06:41.849Z,18.60
2022-09-26T16:09:11.567Z,18.50
2022-09-26T16:11:46.336Z,18.40
2022-09-26T16:14:31.562Z,18.50
2022-09-26T16:17:09.845Z,18.60
2022-09-26T16:19:42.704Z,18.60
2022-09-26T16:22:28.291Z,18.70
2022-09-26T16:25:02.132Z,18.80
2022-09-26T16:27:33.943Z,18.80
2022-09-26T16:30:05.107Z,18.90
2022-09-26T16:32:32.206Z,18.80
2022-09-26T16:35:10.685Z,18.70
2022-09-26T16:37:37.581Z,18.60
2022-09-26T16:40:04.542Z,18.50
2022-09-26T16:42:31.731Z,18.40
2022-09-26T16:45:02.411Z,18.30
2022-09-26T16:47:33.758Z,18.30
2022-09-26T16:50:26.626Z,18.20
2022-09-26T16:52:54.503Z,18.10
2022-09-26T16:55:21.693Z,18.00
2022-09-26T16:57:59.497Z,17.90
2022-09-26T17:00:51.996Z,17.80
2022-09-26T17:03:22.744Z,17.80
2022-09-26T17:05:50.370Z,17.70
2022-09-26T17:08:17.768Z,17.70
2022-09-26T17:10:45.585Z,17.70
2022-09-26T17:13:14.295Z,17.70
2022-09-26T17:15:41.445Z,17.60
2022-09-26T17:18:08.888Z,17.50
2022-09-26T17:20:44.202Z,17.50
2022-09-26T17:23:35.327Z,17.50
2022-09-26T17:26:01.828Z,17.40
2022-09-26T17:28:33.881Z,17.40
2022-09-26T17:31:06.311Z,17.40
2022-09-26T17:33:34.635Z,17.30
2022-09-26T17:36:02.164Z,17.30
2022-09-26T17:38:29.202Z,17.20
2022-09-26T17:40:55.997Z,17.20
2022-09-26T17:43:23.001Z,17.10
2022-09-26T17:45:51.416Z,17.10
2022-09-26T17:48:19.343Z,17.10
2022-09-26T17:50:57.106Z,17.00
2022-09-26T17:53:25.561Z,17.00
2022-09-26T17:55:53.192Z,16.90
2022-09-26T17:58:20.055Z,16.90
2022-09-26T18:00:48.303Z,16.90
2022-09-26T18:03:19.810Z,16.90
2022-09-26T18:05:46.765Z,16.80
2022-09-26T18:08:13.500Z,16.80
2022-09-26T18:10:42.126Z,16.80
2022-09-26T18:13:14.788Z,16.70
2022-09-26T18:15:41.748Z,16.70
2022-09-26T18:18:14.442Z,16.70
2022-09-26T18:20:41.331Z,16.70
2022-09-26T18:23:10.956Z,16.60
2022-09-26T18:25:38.033Z,16.70
2022-09-26T18:28:06.642Z,16.60
2022-09-26T18:30:33.645Z,16.70
2022-09-26T18:33:00.465Z,16.60
2022-09-26T18:35:27.740Z,16.60
2022-09-26T18:37:55.857Z,16.60
2022-09-26T18:40:24.484Z,16.60
2022-09-26T18:42:51.654Z,16.60
2022-09-26T18:45:25.666Z,16.60
2022-09-26T18:47:52.594Z,16.60
2022-09-26T18:50:22.211Z,16.60
2022-09-26T18:52:50.067Z,16.60
2022-09-26T18:55:40.155Z,16.60
2022-09-26T18:58:28.302Z,16.60
2022-09-26T19:00:56.783Z,16.70
2022-09-26T19:03:24.583Z,16.60
2022-09-26T19:05:52.684Z,16.60
2022-09-26T19:08:33.577Z,16.70
2022-09-26T19:11:20.735Z,16.70
2022-09-26T19:13:57.653Z,16.60
2022-09-26T19:16:24.845Z,16.60
2022-09-26T19:18:51.934Z,16.60
2022-09-26T19:21:47.013Z,16.70
2022-09-26T19:24:37.214Z,16.60
2022-09-26T19:27:07.120Z,16.60
2022-09-26T19:29:36.261Z,16.60
2022-09-26T19:32:04.721Z,16.60
2022-09-26T19:34:32.917Z,16.60
2022-09-26T19:37:02.280Z,16.60
2022-09-26T19:39:29.074Z,16.60
2022-09-26T19:41:55.994Z,16.60
2022-09-26T19:44:24.338Z,16.60
2022-09-26T19:46:51.257Z,16.60
2022-09-26T19:49:18.958Z,16.50
2022-09-26T19:51:45.913Z,16.60
2022-09-26T19:54:17.525Z,16.50
2022-09-26T19:56:45.748Z,16.50
2022-09-26T19:59:13.592Z,16.50
2022-09-26T20:01:41.572Z,16.50
2022-09-26T20:04:18.521Z,16.50
2022-09-26T20:06:46.230Z,16.50
2022-09-26T20:09:18.531Z,16.40
2022-09-26T20:11:45.859Z,16.40
2022-09-26T20:14:24.741Z,16.40
2022-09-26T20:16:57.367Z,16.40
2022-09-26T20:19:29.572Z,16.40
2022-09-26T20:21:59.799Z,16.40
2022-09-26T20:24:26.991Z,16.30
2022-09-26T20:26:54.156Z,16.30
2022-09-26T20:29:21.075Z,16.30
2022-09-26T20:31:48.120Z,16.30
2022-09-26T20:34:21.426Z,16.30
2022-09-26T20:36:50.886Z,16.30
2022-09-26T20:39:25.984Z,16.30
2022-09-26T20:41:53.476Z,16.30
2022-09-26T20:44:22.666Z,16.20
2022-09-26T20:46:51.499Z,16.20
2022-09-26T20:49:23.975Z,16.30
2022-09-26T20:51:51.976Z,16.20
2022-09-26T20:54:32.168Z,16.50
2022-09-26T20:57:01.891Z,16.20
2022-09-26T20:59:32.666Z,16.30
2022-09-26T21:02:00.433Z,16.20
2022-09-26T21:04:32.043Z,16.20
2022-09-26T21:06:59.311Z,16.20
2022-09-26T21:09:26.552Z,16.20
2022-09-26T21:11:53.939Z,16.30
2022-09-26T21:14:21.378Z,16.20
2022-09-26T21:16:51.047Z,16.20
2022-09-26T21:19:23.525Z,16.20
2022-09-26T21:21:58.845Z,16.20
2022-09-26T21:24:38.263Z,16.20
2022-09-26T21:27:12.210Z,16.20
2022-09-26T21:29:40.061Z,15.80
2022-09-26T21:32:07.962Z,16.20
2022-09-26T21:34:34.965Z,16.20
2022-09-26T21:37:03.707Z,16.20
2022-09-26T21:39:30.794Z,16.20
2022-09-26T21:41:58.515Z,16.20
2022-09-26T21:44:25.435Z,16.20
2022-09-26T21:46:52.353Z,16.10
2022-09-26T21:49:19.141Z,16.20
2022-09-26T21:51:48.161Z,16.20
2022-09-26T21:54:20.201Z,16.10
2022-09-26T21:56:50.614Z,16.10
2022-09-26T21:59:19.702Z,15.80
2022-09-26T22:01:46.674Z,16.10
2022-09-26T22:04:14.067Z,16.10
2022-09-26T22:06:41.486Z,16.10
2022-09-26T22:09:08.729Z,16.10
2022-09-26T22:11:36.522Z,16.10
2022-09-26T22:14:03.604Z,16.10
2022-09-26T22:16:30.509Z,16.10
2022-09-26T22:18:57.850Z,16.10
2022-09-26T22:21:24.742Z,16.10
2022-09-26T22:23:51.820Z,16.10
2022-09-26T22:26:19.043Z,16.00
2022-09-26T22:28:46.191Z,16.10
2022-09-26T22:31:13.130Z,16.10
2022-09-26T22:33:40.268Z,16.10
2022-09-26T22:36:08.009Z,16.00
2022-09-26T22:38:35.590Z,16.10
2022-09-26T22:41:03.883Z,16.10
2022-09-26T22:43:31.229Z,15.80
2022-09-26T22:46:02.063Z,16.10
2022-09-26T22:48:33.276Z,16.00
2022-09-26T22:51:00.401Z,16.00
2022-09-26T22:53:27.448Z,16.10
2022-09-26T22:55:55.626Z,16.10
2022-09-26T22:58:22.972Z,16.00
2022-09-26T23:00:51.141Z,16.00
2022-09-26T23:03:18.184Z,16.00
2022-09-26T23:05:46.757Z,16.00
2022-09-26T23:08:13.517Z,15.90
2022-09-26T23:10:47.702Z,16.00
2022-09-26T23:13:14.696Z,16.00
2022-09-26T23:15:41.586Z,16.00
2022-09-26T23:18:08.604Z,16.00
2022-09-26T23:20:37.748Z,16.00
2022-09-26T23:23:04.664Z,16.00
2022-09-26T23:25:31.465Z,16.00
2022-09-26T23:27:58.323Z,16.00
2022-09-26T23:30:25.186Z,15.90
2022-09-26T23:32:52.104Z,15.90
2022-09-26T23:35:19.098Z,16.00
2022-09-26T23:37:46.097Z,15.90
2022-09-26T23:40:13.223Z,16.00
2022-09-26T23:42:40.469Z,15.90
2022-09-26T23:45:07.753Z,15.90
2022-09-26T23:47:34.799Z,15.80
2022-09-26T23:50:02.266Z,15.70
2022-09-26T23:52:29.446Z,15.80
2022-09-26T23:54:56.373Z,15.80
2022-09-26T23:57:24.055Z,15.80
2022-09-26T23:59:50.905Z,15.80
